createdAt,value
2023-01-04T00:01:20.440Z,96943.97
2023-01-04T00:03:47.227Z,96948.22
2023-01-04T00:06:14.668Z,96944.91
2023-01-04T00:08:41.512Z,96943.56
2023-01-04T00:11:20.030Z,96953.75
2023-01-04T00:13:47.256Z,96951.13
2023-01-04T00:16:15.459Z,96943.97
2023-01-04T00:18:42.298Z,96944.91
2023-01-04T00:21:10.391Z,96952.75
2023-01-04T00:23:37.660Z,96946.03
2023-01-04T00:26:06.880Z,96941.19
2023-01-04T00:28:33.296Z,96939.53
2023-01-04T00:31:04.078Z,96949.88
2023-01-04T00:33:31.115Z,96944.09
2023-01-04T00:36:01.965Z,96957.47
2023-01-04T00:38:28.389Z,96956.22
2023-01-04T00:40:54.831Z,96951.81
2023-01-04T00:43:21.272Z,96958.00
2023-01-04T00:45:47.722Z,96959.97
2023-01-04T00:48:14.231Z,96958.44
2023-01-04T00:50:40.611Z,96962.44
2023-01-04T00:53:07.058Z,96960.78
2023-01-04T00:55:33.496Z,96960.22
2023-01-04T00:57:59.957Z,96969.19
2023-01-04T01:00:26.619Z,96970.44
2023-01-04T01:02:53.171Z,96973.03
2023-01-04T01:05:19.805Z,96974.41
2023-01-04T01:07:46.282Z,96971.25
2023-01-04T01:10:12.756Z,96979.22
2023-01-04T01:12:39.241Z,96974.41
2023-01-04T01:15:06.163Z,96974.13
2023-01-04T01:17:33.400Z,96975.13
2023-01-04T01:20:00.107Z,96975.34
2023-01-04T01:22:26.611Z,96980.44
2023-01-04T01:24:53.059Z,96965.72
2023-01-04T01:27:19.513Z,96968.47
2023-01-04T01:29:45.951Z,96964.34
2023-01-04T01:32:12.441Z,96954.97
2023-01-04T01:34:38.879Z,96956.91
2023-01-04T01:37:05.375Z,96957.19
2023-01-04T01:39:31.837Z,96955.81
2023-01-04T01:41:59.563Z,96951.66
2023-01-04T01:44:44.189Z,96950.28
2023-01-04T01:47:16.584Z,96950.00
2023-01-04T01:49:44.870Z,96942.16
2023-01-04T01:52:17.272Z,96942.59
2023-01-04T01:54:49.749Z,96932.25
2023-01-04T01:57:18.458Z,96937.34
2023-01-04T01:59:46.109Z,96930.47
2023-01-04T02:02:12.635Z,96923.19
2023-01-04T02:04:41.665Z,96924.13
2023-01-04T02:07:09.361Z,96929.63
2023-01-04T02:09:37.063Z,96922.06
2023-01-04T02:12:03.583Z,96925.91
2023-01-04T02:14:30.412Z,96925.34
2023-01-04T02:17:01.334Z,96920.13
2023-01-04T02:19:42.433Z,96924.41
2023-01-04T02:22:28.029Z,96925.22
2023-01-04T02:25:13.419Z,96924.66
2023-01-04T02:27:44.419Z,96927.56
2023-01-04T02:30:10.905Z,96924.25
2023-01-04T02:32:43.097Z,96917.47
2023-01-04T02:35:09.507Z,96922.19
2023-01-04T02:37:48.263Z,96918.59
2023-01-04T02:40:19.659Z,96920.50
2023-01-04T02:43:16.061Z,96916.34
2023-01-04T02:45:46.550Z,96915.94
2023-01-04T02:48:31.348Z,96919.66
2023-01-04T02:50:59.069Z,96924.34
2023-01-04T02:53:39.564Z,96923.50
2023-01-04T02:56:05.995Z,96928.03
2023-01-04T02:58:44.393Z,96921.44
2023-01-04T03:01:35.722Z,96922.91
2023-01-04T03:04:20.937Z,96928.09
2023-01-04T03:06:53.138Z,96924.53
2023-01-04T03:09:21.842Z,96930.84
2023-01-04T03:12:10.768Z,96926.47
2023-01-04T03:15:00.351Z,96925.63
2023-01-04T03:17:27.801Z,96926.28
2023-01-04T03:19:55.731Z,96926.44
2023-01-04T03:22:57.827Z,96937.00
2023-01-04T03:26:04.788Z,96928.47
2023-01-04T03:28:51.644Z,96914.56
2023-01-04T03:31:45.843Z,96921.59
2023-01-04T03:34:31.003Z,96928.03
2023-01-04T03:37:12.586Z,96924.03
2023-01-04T03:40:00.854Z,96925.00
2023-01-04T03:42:55.080Z,96922.50
2023-01-04T03:45:42.279Z,96921.38
2023-01-04T03:48:33.416Z,96913.41
2023-01-04T03:51:14.818Z,96907.63
2023-01-04T03:54:00.213Z,96917.50
2023-01-04T03:56:28.296Z,96915.59
2023-01-04T03:58:54.997Z,96903.75
2023-01-04T04:01:23.411Z,96906.75
2023-01-04T04:04:08.629Z,96907.81
2023-01-04T04:06:53.574Z,96903.84
2023-01-04T04:09:20.042Z,96908.84
2023-01-04T04:11:46.548Z,96899.38
2023-01-04T04:14:13.040Z,96898.69
2023-01-04T04:16:39.522Z,96890.28
2023-01-04T04:19:08.762Z,96902.50
2023-01-04T04:21:35.573Z,96902.50
2023-01-04T04:24:02.060Z,96901.81
2023-01-04T04:26:28.623Z,96906.91
2023-01-04T04:28:55.079Z,96902.63
2023-01-04T04:31:21.525Z,96899.22
2023-01-04T04:33:47.992Z,96897.28
2023-01-04T04:36:14.448Z,96901.91
2023-01-04T04:38:40.917Z,96899.72
2023-01-04T04:41:27.095Z,96896.16
2023-01-04T04:43:54.082Z,96913.19
2023-01-04T04:46:20.834Z,96914.16
2023-01-04T04:48:47.580Z,96912.63
2023-01-04T04:51:14.143Z,96906.84
2023-01-04T04:53:40.581Z,96909.13
2023-01-04T04:56:07.689Z,96907.22
2023-01-04T04:58:34.580Z,96913.41
2023-01-04T05:01:01.097Z,96912.13
2023-01-04T05:03:27.672Z,96922.44
2023-01-04T05:05:54.148Z,96924.66
2023-01-04T05:08:20.608Z,96921.13
2023-01-04T05:10:47.043Z,96924.66
2023-01-04T05:13:13.471Z,96927.97
2023-01-04T05:15:41.484Z,96933.47
2023-01-04T05:18:08.782Z,96916.97
2023-01-04T05:20:35.310Z,96916.66
2023-01-04T05:23:01.982Z,96913.59
2023-01-04T05:25:28.414Z,96913.84
2023-01-04T05:27:54.884Z,96910.03
2023-01-04T05:30:40.223Z,96913.22
2023-01-04T05:33:07.140Z,96917.94
2023-01-04T05:35:33.933Z,96910.91
2023-01-04T05:38:00.871Z,96909.97
2023-01-04T05:40:27.394Z,96913.97
2023-01-04T05:42:53.859Z,96906.53
2023-01-04T05:45:21.245Z,96910.69
2023-01-04T05:47:51.666Z,96906.53
2023-01-04T05:50:19.011Z,96903.06
2023-01-04T05:52:45.518Z,96908.75
2023-01-04T05:55:11.998Z,96903.28
2023-01-04T05:57:38.491Z,96914.53
2023-01-04T06:00:06.192Z,96904.66
2023-01-04T06:02:32.703Z,96909.88
2023-01-04T06:05:00.412Z,96909.66
2023-01-04T06:07:30.120Z,96907.72
2023-01-04T06:09:56.674Z,96904.16
2023-01-04T06:12:23.351Z,96898.69
2023-01-04T06:14:49.823Z,96896.78
2023-01-04T06:17:16.587Z,96895.09
2023-01-04T06:19:43.193Z,96898.94
2023-01-04T06:22:09.773Z,96898.50
2023-01-04T06:24:36.340Z,96892.84
2023-01-04T06:27:03.503Z,96895.81
2023-01-04T06:29:29.957Z,96902.41
2023-01-04T06:31:56.600Z,96903.06
2023-01-04T06:34:30.304Z,96902.84
2023-01-04T06:36:57.813Z,96888.97
2023-01-04T06:39:24.373Z,96888.13
2023-01-04T06:41:50.823Z,96886.78
2023-01-04T06:44:17.327Z,96887.34
2023-01-04T06:46:43.981Z,96882.41
2023-01-04T06:49:10.440Z,96877.63
2023-01-04T06:51:36.873Z,96879.97
2023-01-04T06:54:03.416Z,96881.50
2023-01-04T06:56:31.122Z,96876.50
2023-01-04T06:58:57.863Z,96880.22
2023-01-04T07:01:24.485Z,96875.94
2023-01-04T07:03:51.020Z,96872.75
2023-01-04T07:06:17.590Z,96871.25
2023-01-04T07:08:44.003Z,96871.13
2023-01-04T07:11:10.508Z,96868.09
2023-01-04T07:13:36.977Z,96866.72
2023-01-04T07:16:03.514Z,96859.84
2023-01-04T07:18:29.972Z,96870.06
2023-01-04T07:20:56.450Z,96867.31
2023-01-04T07:23:22.938Z,96866.47
2023-01-04T07:25:49.377Z,96857.38
2023-01-04T07:28:38.535Z,96856.28
2023-01-04T07:31:06.545Z,96854.69
2023-01-04T07:33:33.222Z,96850.69
2023-01-04T07:36:04.150Z,96866.91
2023-01-04T07:38:30.621Z,96858.91
2023-01-04T07:40:57.375Z,96865.06
2023-01-04T07:43:27.909Z,96862.75
2023-01-04T07:45:54.924Z,96869.25
2023-01-04T07:48:21.471Z,96869.53
2023-01-04T07:50:47.940Z,96860.81
2023-01-04T07:53:14.401Z,96865.59
2023-01-04T07:55:40.858Z,96865.16
2023-01-04T07:58:07.323Z,96872.16
2023-01-04T08:00:33.824Z,96876.88
2023-01-04T08:03:00.490Z,96870.50
2023-01-04T08:05:27.064Z,96876.78
2023-01-04T08:07:53.617Z,96875.16
2023-01-04T08:10:20.141Z,96881.75
2023-01-04T08:12:46.649Z,96879.34
2023-01-04T08:15:14.929Z,96871.69
2023-01-04T08:17:41.601Z,96870.34
2023-01-04T08:20:08.545Z,96874.22
2023-01-04T08:22:35.019Z,96858.31
2023-01-04T08:25:01.550Z,96855.00
2023-01-04T08:27:28.042Z,96851.13
2023-01-04T08:29:54.470Z,96852.38
2023-01-04T08:32:20.899Z,96847.94
2023-01-04T08:34:47.351Z,96845.19
2023-01-04T08:37:13.868Z,96848.22
2023-01-04T08:39:44.024Z,96846.09
2023-01-04T08:42:20.843Z,96843.03
2023-01-04T08:44:50.279Z,96853.13
2023-01-04T08:47:18.304Z,96835.19
2023-01-04T08:49:44.750Z,96842.81
2023-01-04T08:52:12.266Z,96836.72
2023-01-04T08:54:38.690Z,96838.88
2023-01-04T08:57:05.140Z,96842.88
2023-01-04T08:59:31.616Z,96833.69
2023-01-04T09:02:04.835Z,96834.72
2023-01-04T09:04:31.982Z,96836.44
2023-01-04T09:06:58.450Z,96827.00
2023-01-04T09:09:24.909Z,96831.25
2023-01-04T09:11:51.367Z,96838.44
2023-01-04T09:14:17.791Z,96837.53
2023-01-04T09:16:44.385Z,96835.19
2023-01-04T09:19:13.945Z,96839.50
2023-01-04T09:21:43.415Z,96839.94
2023-01-04T09:24:09.891Z,96832.75
2023-01-04T09:26:36.385Z,96824.84
2023-01-04T09:29:03.966Z,96813.88
2023-01-04T09:31:30.530Z,96824.09
2023-01-04T09:34:15.209Z,96824.66
2023-01-04T09:36:42.985Z,96816.88
2023-01-04T09:39:14.915Z,96813.72
2023-01-04T09:41:52.927Z,96806.22
2023-01-04T09:44:22.374Z,96787.38
2023-01-04T09:46:55.523Z,96786.53
2023-01-04T09:49:22.060Z,96786.31
2023-01-04T09:51:55.439Z,96777.50
2023-01-04T09:54:23.429Z,96782.31
2023-01-04T09:56:53.576Z,96780.25
2023-01-04T09:59:23.199Z,96768.75
2023-01-04T10:01:53.859Z,96764.06
2023-01-04T10:04:25.579Z,96757.72
2023-01-04T10:06:52.965Z,96752.66
2023-01-04T10:09:19.999Z,96744.81
2023-01-04T10:12:01.508Z,96738.63
2023-01-04T10:14:40.115Z,96736.00
2023-01-04T10:17:44.455Z,96737.38
2023-01-04T10:23:10.686Z,96725.03
2023-01-04T10:25:54.891Z,96717.59
2023-01-04T10:28:33.558Z,96707.97
2023-01-04T10:31:38.420Z,96707.16
2023-01-04T10:34:15.288Z,96700.03
2023-01-04T10:36:46.546Z,96703.56
2023-01-04T10:39:14.397Z,96692.97
2023-01-04T10:41:45.313Z,96682.94
2023-01-04T10:44:24.699Z,96671.25
2023-01-04T10:46:51.172Z,96679.09
2023-01-04T10:49:23.238Z,96664.34
2023-01-04T10:51:55.897Z,96666.44
2023-01-04T10:54:35.853Z,96651.72
2023-01-04T10:57:09.724Z,96641.94
2023-01-04T10:59:41.419Z,96632.88
2023-01-04T11:02:33.710Z,96625.69
2023-01-04T11:05:04.968Z,96621.28
2023-01-04T11:07:38.346Z,96615.13
2023-01-04T11:10:13.821Z,96615.22
2023-01-04T11:12:40.281Z,96612.50
2023-01-04T11:15:07.113Z,96609.44
2023-01-04T11:17:34.793Z,96598.00
2023-01-04T11:20:01.343Z,96595.41
2023-01-04T11:22:48.414Z,96592.63
2023-01-04T11:25:36.534Z,96584.53
2023-01-04T11:28:09.179Z,96577.91
2023-01-04T11:30:45.242Z,96574.72
2023-01-04T11:33:14.924Z,96564.50
2023-01-04T11:35:43.335Z,96565.44
2023-01-04T11:38:12.749Z,96557.00
2023-01-04T11:40:39.438Z,96552.84
2023-01-04T11:43:15.922Z,96540.00
2023-01-04T11:45:52.723Z,96535.97
2023-01-04T11:48:19.239Z,96519.72
2023-01-04T11:50:46.698Z,96520.63
2023-01-04T11:53:22.017Z,96518.91
2023-01-04T11:55:48.651Z,96520.63
2023-01-04T11:58:16.204Z,96516.44
2023-01-04T12:00:53.011Z,96515.03
2023-01-04T12:03:29.363Z,96499.53
2023-01-04T12:05:55.882Z,96495.34
2023-01-04T12:08:30.635Z,96495.72
2023-01-04T12:10:58.818Z,96485.28
2023-01-04T12:13:25.400Z,96474.22
2023-01-04T12:16:10.797Z,96478.66
2023-01-04T12:18:42.164Z,96472.53
2023-01-04T12:21:14.083Z,96465.69
2023-01-04T12:23:41.150Z,96471.97
2023-01-04T12:26:10.643Z,96472.97
2023-01-04T12:28:41.546Z,96456.63
2023-01-04T12:31:21.112Z,96448.78
2023-01-04T12:33:50.047Z,96444.41
2023-01-04T12:36:35.240Z,96434.94
2023-01-04T12:39:04.293Z,96431.38
2023-01-04T12:41:33.842Z,96426.66
2023-01-04T12:44:01.298Z,96421.88
2023-01-04T12:46:49.291Z,96417.97
2023-01-04T12:49:39.138Z,96417.19
2023-01-04T12:54:58.772Z,96409.22
2023-01-04T12:57:36.829Z,96401.34
2023-01-04T13:00:12.583Z,96404.94
2023-01-04T13:02:52.680Z,96394.94
2023-01-04T13:08:10.709Z,96379.03
2023-01-04T13:10:39.595Z,96374.09
2023-01-04T13:13:11.961Z,96375.56
2023-01-04T13:16:03.779Z,96374.09
2023-01-04T13:18:36.505Z,96364.72
2023-01-04T13:21:21.410Z,96371.47
2023-01-04T13:23:52.657Z,96368.03
2023-01-04T13:26:31.490Z,96365.56
2023-01-04T13:29:07.275Z,96365.25
2023-01-04T13:31:40.293Z,96362.94
2023-01-04T13:34:12.767Z,96357.69
2023-01-04T13:36:39.258Z,96361.44
2023-01-04T13:39:07.443Z,96354.72
2023-01-04T13:41:34.661Z,96352.09
2023-01-04T13:44:01.068Z,96343.56
2023-01-04T13:46:27.908Z,96343.41
2023-01-04T13:48:58.086Z,96339.97
2023-01-04T13:51:30.702Z,96336.19
2023-01-04T13:54:01.403Z,96335.50
2023-01-04T13:56:32.211Z,96338.63
2023-01-04T13:58:58.975Z,96335.22
2023-01-04T14:01:36.556Z,96326.84
2023-01-04T14:04:06.968Z,96322.25
2023-01-04T14:06:33.389Z,96310.91
2023-01-04T14:09:09.117Z,96308.31
2023-01-04T14:12:06.379Z,96299.91
2023-01-04T14:14:33.668Z,96306.81
2023-01-04T14:17:12.613Z,96309.41
2023-01-04T14:19:39.245Z,96308.13
2023-01-04T14:22:20.891Z,96310.75
2023-01-04T14:27:42.775Z,96301.22
2023-01-04T14:30:15.188Z,96306.81
2023-01-04T14:32:42.123Z,96304.53
2023-01-04T14:35:13.443Z,96296.66
2023-01-04T14:37:40.082Z,96288.78
2023-01-04T14:40:16.428Z,96273.81
2023-01-04T14:42:42.896Z,96277.41
2023-01-04T14:45:12.527Z,96267.09
2023-01-04T14:47:39.214Z,96273.00
2023-01-04T14:50:05.776Z,96273.53
2023-01-04T14:52:32.251Z,96280.91
2023-01-04T14:54:59.337Z,96277.78
2023-01-04T14:57:25.769Z,96268.75
2023-01-04T14:59:52.186Z,96267.78
2023-01-04T15:02:19.291Z,96263.50
2023-01-04T15:04:45.895Z,96263.66
2023-01-04T15:07:31.114Z,96259.25
2023-01-04T15:09:57.620Z,96252.03
2023-01-04T15:12:24.045Z,96259.06
2023-01-04T15:14:50.457Z,96252.66
2023-01-04T15:17:16.995Z,96251.69
2023-01-04T15:19:43.781Z,96262.50
2023-01-04T15:22:10.211Z,96262.66
2023-01-04T15:24:36.658Z,96254.31
2023-01-04T15:27:03.107Z,96237.28
2023-01-04T15:29:29.596Z,96227.56
2023-01-04T15:31:56.162Z,96225.44
2023-01-04T15:34:23.067Z,96223.00
2023-01-04T15:36:52.869Z,96217.25
2023-01-04T15:39:19.382Z,96211.84
2023-01-04T15:42:04.309Z,96212.84
2023-01-04T15:44:30.821Z,96198.56
2023-01-04T15:46:59.598Z,96199.84
2023-01-04T15:49:26.365Z,96200.84
2023-01-04T15:51:52.795Z,96196.56
2023-01-04T15:54:21.862Z,96197.56
2023-01-04T15:56:48.492Z,96188.06
2023-01-04T15:59:14.935Z,96191.31
2023-01-04T16:01:42.130Z,96181.66
2023-01-04T16:04:09.305Z,96178.22
2023-01-04T16:06:35.765Z,96186.09
2023-01-04T16:09:02.199Z,96179.88
2023-01-04T16:11:28.794Z,96174.63
2023-01-04T16:13:55.274Z,96168.91
2023-01-04T16:16:23.295Z,96158.91
2023-01-04T16:18:50.944Z,96172.16
2023-01-04T16:21:20.369Z,96172.00
2023-01-04T16:24:05.160Z,96165.47
2023-01-04T16:26:36.260Z,96153.97
2023-01-04T16:29:03.039Z,96158.88
2023-01-04T16:31:33.456Z,96152.34
2023-01-04T16:33:59.949Z,96153.00
2023-01-04T16:36:26.437Z,96145.44
2023-01-04T16:38:52.855Z,96139.56
2023-01-04T16:41:21.323Z,96121.84
2023-01-04T16:43:51.880Z,96124.47
2023-01-04T16:46:20.324Z,96128.75
2023-01-04T16:48:48.607Z,96118.06
2023-01-04T16:51:15.606Z,96119.84
2023-01-04T16:53:42.485Z,96101.81
2023-01-04T16:56:10.083Z,96116.22
2023-01-04T16:58:37.315Z,96115.09
2023-01-04T17:01:11.504Z,96125.25
2023-01-04T17:03:38.109Z,96127.69
2023-01-04T17:06:11.795Z,96129.34
2023-01-04T17:08:38.379Z,96125.72
2023-01-04T17:11:38.452Z,96133.91
2023-01-04T17:13:52.417Z,96115.66
2023-01-04T17:16:21.399Z,96092.50
2023-01-04T17:18:48.801Z,96089.56
2023-01-04T17:21:33.259Z,96099.41
2023-01-04T17:24:00.656Z,96086.78
2023-01-04T17:26:29.054Z,96062.38
2023-01-04T17:28:56.416Z,96050.22
2023-01-04T17:31:27.073Z,96036.59
2023-01-04T17:33:53.771Z,96036.13
2023-01-04T17:36:21.245Z,96041.72
2023-01-04T17:38:48.488Z,96046.97
2023-01-04T17:41:18.911Z,96047.59
2023-01-04T17:43:48.088Z,96053.78
2023-01-04T17:46:20.905Z,96057.38
2023-01-04T17:48:55.464Z,96068.84
2023-01-04T17:51:37.619Z,96069.44
2023-01-04T17:54:04.516Z,96067.72
2023-01-04T17:56:33.281Z,96070.81
2023-01-04T17:59:01.275Z,96078.47
2023-01-04T18:01:28.042Z,96059.94
2023-01-04T18:03:56.167Z,96057.75
2023-01-04T18:06:25.883Z,96044.97
2023-01-04T18:08:53.007Z,96028.50
2023-01-04T18:11:19.562Z,96022.19
2023-01-04T18:13:46.086Z,96013.69
2023-01-04T18:16:24.456Z,96010.34
2023-01-04T18:18:51.499Z,96009.97
2023-01-04T18:21:28.365Z,96013.53
2023-01-04T18:24:34.102Z,96005.31
2023-01-04T18:27:10.852Z,95998.59
2023-01-04T18:29:28.413Z,95987.25
2023-01-04T18:31:55.054Z,95992.88
2023-01-04T18:34:21.932Z,95981.06
2023-01-04T18:36:48.487Z,95983.00
2023-01-04T18:39:14.924Z,95983.66
2023-01-04T18:41:41.392Z,95984.28
2023-01-04T18:44:31.512Z,95968.16
2023-01-04T18:46:54.324Z,95960.78
2023-01-04T18:49:20.877Z,95946.84
2023-01-04T18:51:47.489Z,95952.25
2023-01-04T18:54:20.467Z,95955.72
2023-01-04T18:56:47.688Z,95950.47
2023-01-04T18:59:17.347Z,95944.56
2023-01-04T19:01:45.021Z,95944.28
2023-01-04T19:04:12.718Z,95932.13
2023-01-04T19:06:40.343Z,95937.41
2023-01-04T19:09:07.381Z,95928.22
2023-01-04T19:11:34.003Z,95919.38
2023-01-04T19:14:00.482Z,95909.03
2023-01-04T19:16:30.969Z,95908.38
2023-01-04T19:18:58.399Z,95902.47
2023-01-04T19:21:24.889Z,95892.34
2023-01-04T19:23:52.749Z,95894.50
2023-01-04T19:26:20.055Z,95882.16
2023-01-04T19:28:46.635Z,95873.81
2023-01-04T19:31:14.295Z,95874.81
2023-01-04T19:33:40.826Z,95888.13
2023-01-04T19:36:08.429Z,95875.19
2023-01-04T19:38:35.153Z,95872.28
2023-01-04T19:41:01.935Z,95877.16
2023-01-04T19:43:28.466Z,95874.53
2023-01-04T19:45:55.100Z,95867.03
2023-01-04T19:48:23.772Z,95861.75
2023-01-04T19:51:00.639Z,95856.50
2023-01-04T19:53:27.135Z,95847.63
2023-01-04T19:55:56.091Z,95838.50
2023-01-04T19:58:22.533Z,95853.25
2023-01-04T20:00:54.212Z,95853.25
2023-01-04T20:03:22.515Z,95866.56
2023-01-04T20:05:49.606Z,95864.91
2023-01-04T20:08:16.075Z,95843.47
2023-01-04T20:10:42.548Z,95836.75
2023-01-04T20:13:09.207Z,95836.56
2023-01-04T20:15:39.485Z,95803.88
2023-01-04T20:18:13.433Z,95797.34
2023-01-04T20:20:43.881Z,95808.66
2023-01-04T20:23:10.673Z,95796.00
2023-01-04T20:25:40.783Z,95786.47
2023-01-04T20:28:07.311Z,95785.66
2023-01-04T20:30:33.980Z,95783.31
2023-01-04T20:33:00.771Z,95790.47
2023-01-04T20:35:27.299Z,95791.13
2023-01-04T20:37:56.557Z,95798.34
2023-01-04T20:40:26.923Z,95804.50
2023-01-04T20:43:12.034Z,95799.41
2023-01-04T20:45:46.173Z,95794.63
2023-01-04T20:48:13.308Z,95800.69
2023-01-04T20:50:40.082Z,95798.72
2023-01-04T20:53:06.598Z,95796.53
2023-01-04T20:55:37.719Z,95789.72
2023-01-04T20:58:05.318Z,95792.28
2023-01-04T21:00:31.831Z,95785.50
2023-01-04T21:02:58.520Z,95780.94
2023-01-04T21:05:25.137Z,95776.25
2023-01-04T21:07:51.563Z,95766.63
2023-01-04T21:10:18.228Z,95770.69
2023-01-04T21:12:44.677Z,95765.53
2023-01-04T21:15:11.225Z,95768.16
2023-01-04T21:17:38.244Z,95762.25
2023-01-04T21:20:04.959Z,95762.25
2023-01-04T21:22:31.396Z,95749.09
2023-01-04T21:24:57.836Z,95743.22
2023-01-04T21:27:24.364Z,95735.31
2023-01-04T21:29:51.219Z,95719.28
2023-01-04T21:32:17.643Z,95724.19
2023-01-04T21:34:44.087Z,95713.59
2023-01-04T21:37:10.538Z,95722.94
2023-01-04T21:39:36.959Z,95720.41
2023-01-04T21:42:03.499Z,95720.03
2023-01-04T21:44:30.828Z,95734.47
2023-01-04T21:46:57.353Z,95733.44
2023-01-04T21:49:23.778Z,95733.06
2023-01-04T21:51:50.240Z,95732.69
2023-01-04T21:54:16.717Z,95732.69
2023-01-04T21:56:45.082Z,95733.41
2023-01-04T21:59:11.627Z,95732.59
2023-01-04T22:01:38.285Z,95730.97
2023-01-04T22:04:04.985Z,95730.25
2023-01-04T22:06:33.221Z,95733.56
2023-01-04T22:08:59.774Z,95722.84
2023-01-04T22:11:26.223Z,95727.00
2023-01-04T22:13:52.740Z,95694.44
2023-01-04T22:16:19.313Z,95704.97
2023-01-04T22:18:47.224Z,95703.16
2023-01-04T22:21:15.268Z,95676.94
2023-01-04T22:23:41.862Z,95664.22
2023-01-04T22:26:08.830Z,95667.88
2023-01-04T22:28:37.213Z,95683.31
2023-01-04T22:31:09.207Z,95665.69
2023-01-04T22:33:36.131Z,95656.00
2023-01-04T22:36:03.440Z,95658.81
2023-01-04T22:38:29.907Z,95666.28
2023-01-04T22:40:56.332Z,95670.91
2023-01-04T22:43:22.747Z,95653.50
2023-01-04T22:45:49.207Z,95648.22
2023-01-04T22:48:15.644Z,95646.00
2023-01-04T22:50:42.089Z,95638.81
2023-01-04T22:53:08.510Z,95639.47
2023-01-04T22:55:59.980Z,95652.25
2023-01-04T22:58:21.337Z,95640.81
2023-01-04T23:00:50.299Z,95627.22
2023-01-04T23:03:16.830Z,95612.00
2023-01-04T23:05:43.314Z,95593.34
2023-01-04T23:08:09.741Z,95591.75
2023-01-04T23:10:36.977Z,95585.66
2023-01-04T23:13:03.946Z,95579.38
2023-01-04T23:15:30.450Z,95559.94
2023-01-04T23:17:57.187Z,95563.78
2023-01-04T23:20:23.662Z,95551.72
2023-01-04T23:22:50.083Z,95548.50
2023-01-04T23:25:16.735Z,95550.56
2023-01-04T23:27:43.170Z,95548.13
2023-01-04T23:30:10.025Z,95558.47
2023-01-04T23:32:36.521Z,95550.25
2023-01-04T23:35:03.343Z,95548.25
2023-01-04T23:37:31.543Z,95548.69
2023-01-04T23:39:57.977Z,95548.69
2023-01-04T23:42:24.450Z,95554.75
2023-01-04T23:44:50.882Z,95555.16
2023-01-04T23:47:17.368Z,95558.44
2023-01-04T23:49:45.963Z,95552.34
2023-01-04T23:52:12.452Z,95569.38
2023-01-04T23:54:38.946Z,95574.03
2023-01-04T23:57:05.439Z,95568.56
2023-01-04T23:59:31.904Z,95562.13
